Latest Coastal Weather Observations for Mardie

IDW60701

Issued at 12:12 am WST Friday 6 March 2015 (issued every 10 minutes, with the page automatically refreshed every 10 minutes)

About coastal observations | Map of coastal stations | Coastal observations for WA | Marine services | Other Formats
Station Details ID: 005008 Name: MARDIE Lat: -21.19 Lon: 115.98 Height: 11.0 m
Data from the previous 72 hours. | See also: Recent months at Mardie
Date/Time
WST
Temp

°C
Wind Pressure Rain
since 9am
mm
Weather Cloud Vis
km
Sea
Height
m
Swell
Dir
 
Speed
knots
Gust
knots
hPa Trend Height
m
Period
s
Dir
06/12:00am 27.6 CALM 0 0 1009.9 - 1.4 - - - - - - -
 
Date/Time
WST
Temp

°C
Wind Pressure Rain
since 9am
mm
Weather Cloud Vis
km
Sea
Height
m
Swell
Dir
 
Speed
knots
Gust
knots
hPa Trend Height
m
Period
s
Dir
05/11:30pm 27.7 CALM 0 0 1010.1 - 1.4 - - - - - - -
05/11:00pm 27.9 CALM 0 0 1010.3 - 1.4 - - - - - - -
05/10:30pm 28.2 CALM 0 0 1010.3 - 1.4 - - - - - - -
05/10:00pm 28.4 CALM 0 0 1010.5 - 1.4 - - - - - - -
05/09:30pm 28.6 CALM 0 0 1010.5 - 1.4 - - - - - - -
05/09:00pm 29.0 NE 3 3 1010.2 - 1.4 - - - - - - -
05/08:30pm 29.3 NE 3 5 1009.9 - 1.4 - - - - - - -
05/08:00pm 29.6 NNE 5 7 1009.7 - 1.4 - - - - - - -
05/07:30pm 30.1 NE 5 7 1009.3 - 1.4 - - - - - - -
05/07:00pm 30.5 NE 7 9 1008.7 - 1.4 - - - - - - -
05/06:30pm 31.2 NNE 8 13 1008.3 - 1.4 - - - - - - -
05/06:00pm 31.9 NE 10 14 1007.9 - 1.4 - - - - - - -
05/05:30pm 32.3 NE 11 14 1007.5 - 1.4 - - - - - - -
05/05:00pm 32.8 NE 12 17 1007.3 - 1.4 - - - - - - -
05/04:30pm 33.0 ENE 12 16 1007.1 - 1.4 - - - - - - -
05/04:00pm 33.0 ENE 15 19 1007.0 - 1.4 - - - - - - -
05/03:30pm 33.3 NE 13 18 1007.0 - 1.4 - - - - - - -
05/03:00pm 32.6 ENE 13 21 1007.4 - 1.4 - - - - - - -
05/02:30pm 32.1 NE 13 17 1007.8 - 1.4 - - - - - - -
05/02:00pm 31.9 ENE 15 20 1008.0 - 1.4 - - - - - - -
05/01:30pm 31.7 ENE 14 19 1008.3 - 1.4 - - - - - - -
05/01:00pm 30.7 ENE 13 19 1008.9 - 1.4 - - - - - - -
05/12:30pm 30.7 E 11 17 1009.3 - 1.4 - - - - - - -
05/12:00pm 28.4 ESE 9 13 1009.7 - 1.4 - - - - - - -
05/11:30am 26.4 ESE 10 13 1009.9 - 1.4 - - - - - - -
05/11:00am 25.6 ESE 7 9 1010.2 - 1.4 - - - - - - -
05/10:30am 25.0 E 8 11 1010.4 - 1.2 - - - - - - -
05/10:00am 24.7 ENE 7 9 1011.0 - 1.2 - - - - - - -
05/09:30am 25.9 SE 5 7 1011.2 - 0.2 - - - - - - -
05/09:00am 25.6 SSE 8 10 1010.7 - 9.8 - - - - - - -
05/08:30am 25.2 SSE 10 13 1010.5 - 9.8 - - - - - - -
05/08:00am 25.0 S 10 14 1009.8 - 9.8 - - - - - - -
05/07:30am 24.6 S 8 11 1009.5 - 9.8 - - - - - - -
05/07:00am 24.4 S 7 10 1009.2 - 9.8 - - - - - - -
05/06:30am 24.1 S 8 11 1009.0 - 9.8 - - - - - - -
05/06:00am 23.8 S 8 11 1008.9 - 9.8 - - - - - - -
05/05:30am 23.8 SSW 11 14 1008.4 - 9.8 - - - - - - -
05/05:00am 23.8 SSW 10 13 1008.5 - 9.8 - - - - - - -
05/04:30am 23.6 SSW 11 16 1008.6 - 9.6 - - - - - - -
05/04:00am 24.0 S 11 15 1009.0 - 9.0 - - - - - - -
05/03:30am 24.2 SSE 7 9 1009.4 - 8.6 - - - - - - -
05/03:00am 25.0 SSE 11 14 1009.4 - 8.0 Recent precip. - - - - - -
05/02:30am 25.1 SSE 7 9 1009.3 - 7.6 - - - - - - -
05/02:00am 25.7 SSW 5 8 1009.5 - 6.6 - - - - - - -
05/01:30am 25.9 SSW 3 4 1009.5 - 6.6 - - - - - - -
05/01:00am 25.6 SSW 2 3 1010.1 - 6.4 - - - - - - -
05/12:30am 25.4 SSW 5 5 1009.7 - 6.2 - - - - - - -
05/12:00am 25.3 SSW 6 8 1009.9 - 6.2 - - - - - - -
 
Date/Time
WST
Temp

°C
Wind Pressure Rain
since 9am
mm
Weather Cloud Vis
km
Sea
Height
m
Swell
Dir
 
Speed
knots
Gust
knots
hPa Trend Height
m
Period
s
Dir
04/11:30pm 25.7 SSW 7 9 1010.4 - 6.2 - - - - - - -
04/11:00pm 26.1 SSW 6 9 1010.6 - 6.2 - - - - - - -
04/10:30pm 25.8 NNW 2 4 1011.0 - 6.2 - - - - - - -
04/10:00pm 25.2 NNW 2 5 1010.4 - 6.0 - - - - - - -
04/09:30pm 24.7 NW 5 8 1010.0 - 6.0 - - - - - - -
04/09:00pm 24.8 ENE 5 7 1009.5 - 5.8 Rain - - - - - -
04/08:30pm 24.9 E 17 23 1009.7 - 1.6 - - - - - - -
04/08:00pm 26.1 E 18 25 1009.5 - 0.0 - - - - - - -
04/07:57pm 27.4 ENE 15 25 1009.4 - 0.0 - - - - - - -
04/07:30pm 29.5 N 11 15 1008.3 - 0.0 - - - - - - -
04/07:00pm 29.9 N 10 15 1008.0 - 0.0 - - - - - - -
04/06:30pm 30.9 N 10 15 1007.5 - 0.0 - - - - - - -
04/06:00pm 34.0 NE 9 13 1007.1 - 0.0 - - - - - - -
04/05:30pm 34.2 NE 8 14 1006.6 - 0.0 - - - - - - -
04/05:00pm 34.8 E 12 17 1006.4 - 0.0 - - - - - - -
04/04:30pm 35.4 NE 12 17 1006.3 - 0.0 - - - - - - -
04/04:00pm 34.4 ENE 12 18 1006.5 - 0.0 - - - - - - -
04/03:30pm 34.1 NE 15 21 1006.7 - 0.0 - - - - - - -
04/03:00pm 32.8 ENE 15 20 1007.1 - 0.0 - - - - - - -
04/02:30pm 33.5 ENE 19 25 1007.3 - 0.0 - - - - - - -
04/02:00pm 35.8 NE 19 26 1007.1 - 0.0 - - - - - - -
04/01:53pm 35.4 NE 16 26 1007.0 - 0.0 - - - - - - -
04/01:30pm 35.5 NE 12 16 1007.1 - 0.0 - - - - - - -
04/01:00pm 35.7 ENE 13 21 1007.5 - 0.0 - - - - - - -
04/12:30pm 35.4 ENE 10 17 1007.8 - 0.0 - - - - - - -
04/12:00pm 35.0 E 12 21 1008.1 - 0.0 - - - - - - -
04/11:30am 35.7 E 13 22 1008.2 - 0.0 - - - - - - -
04/11:00am 36.0 E 12 18 1008.1 - 0.0 - - - - - - -
04/10:30am 34.7 ESE 10 17 1008.7 - 0.0 - - - - - - -
04/10:00am 33.1 ESE 9 14 1008.8 - 0.0 - - - - - - -
04/09:30am 31.4 E 6 11 1008.9 - 0.0 - - - - - - -
04/09:00am 31.3 ESE 10 15 1008.9 - 0.0 - - - - - - -
04/08:30am 30.6 ESE 5 10 1008.9 - 0.0 - - - - - - -
04/08:00am 29.6 S 1 2 1009.2 - 0.0 - - - - - - -
04/07:30am 28.2 SSE 4 6 1009.3 - 0.0 - - - - - - -
04/07:00am 27.4 SE 3 3 1009.2 - 0.0 - - - - - - -
04/06:30am 26.7 SW 3 3 1008.6 - 0.0 - - - - - - -
04/06:00am 26.7 SW 3 3 1008.2 - 0.0 - - - - - - -
04/05:30am 27.1 CALM 0 0 1008.1 - 0.0 - - - - - - -
04/05:00am 27.2 CALM 0 0 1007.8 - 0.0 - - - - - - -
04/04:30am 27.1 CALM 0 0 1007.8 - 0.0 - - - - - - -
04/04:00am 27.0 SW 2 3 1007.7 - 0.0 - - - - - - -
04/03:30am 27.1 SW 1 2 1007.6 - 0.0 - - - - - - -
04/03:00am 27.3 SW 3 3 1007.7 - 0.0 - - - - - - -
04/02:30am 27.5 SW 3 3 1007.7 - 0.0 - - - - - - -
04/02:00am 27.4 SW 2 3 1007.9 - 0.0 - - - - - - -
04/01:30am 27.5 SW 3 5 1008.0 - 0.0 - - - - - - -
04/01:00am 27.6 SW 5 7 1008.4 - 0.0 - - - - - - -
04/12:30am 27.9 SW 8 11 1008.7 - 0.0 - - - - - - -
04/12:00am 28.1 WSW 8 11 1008.9 - 0.0 - - - - - - -
 
Date/Time
WST
Temp

°C
Wind Pressure Rain
since 9am
mm
Weather Cloud Vis
km
Sea
Height
m
Swell
Dir
 
Speed
knots
Gust
knots
hPa Trend Height
m
Period
s
Dir
03/11:30pm 28.1 WSW 9 11 1009.0 - 0.0 - - - - - - -
03/11:00pm 28.3 WSW 8 11 1009.1 - 0.0 - - - - - - -
03/10:30pm 28.7 W 5 8 1009.2 - 0.0 - - - - - - -
03/10:00pm 28.8 W 5 8 1009.3 - 0.0 - - - - - - -
03/09:30pm 28.8 W 7 10 1009.1 - 0.0 - - - - - - -
03/09:00pm 28.8 WNW 6 8 1008.8 - 0.0 - - - - - - -
03/08:30pm 29.0 WNW 6 9 1008.4 - 0.0 - - - - - - -
03/08:00pm 29.0 WNW 6 8 1008.1 - 0.0 - - - - - - -
03/07:30pm 29.3 WNW 7 10 1007.2 - 0.0 - - - - - - -
03/07:00pm 29.5 NW 7 10 1006.8 - 0.0 - - - - - - -
03/06:30pm 29.9 NW 7 11 1006.2 - 0.0 - - - - - - -
03/06:00pm 29.9 NW 11 15 1005.6 - 0.0 - - - - - - -
03/05:30pm 30.5 NW 12 15 1005.5 - 0.0 - - - - - - -
03/05:00pm 31.1 NW 12 17 1005.4 - 0.0 - - - - - - -
03/04:30pm 31.9 NW 14 19 1005.2 - 0.0 - - - - - - -
03/04:00pm 32.5 NW 13 18 1005.1 - 0.0 - - - - - - -
03/03:30pm 32.9 NW 13 18 1005.2 - 0.0 - - - - - - -
03/03:00pm 33.2 NW 14 18 1005.4 - 0.0 - - - - - - -
03/02:30pm 33.3 NW 14 19 1005.8 - 0.0 - - - - - - -
03/02:00pm 33.8 NW 12 17 1006.1 - 0.0 - - - - - - -
03/01:30pm 32.7 NW 11 17 1006.5 - 0.0 - - - - - - -
03/01:00pm 34.2 NW 10 15 1006.6 - 0.0 - - - - - - -
03/12:30pm 32.9 WNW 10 16 1007.1 - 0.0 - - - - - - -
03/12:00pm 32.9 WNW 9 14 1007.3 - 0.0 - - - - - - -
03/11:30am 33.4 WNW 7 12 1007.4 - 0.0 - - - - - - -
03/11:00am 32.1 WNW 6 12 1008.0 - 0.0 - - - - - - -
03/10:30am 31.9 W 4 9 1008.2 - 0.0 - - - - - - -
03/10:00am 31.8 WNW 2 5 1008.3 - 0.0 - - - - - - -
03/09:30am 30.1 W 5 12 1008.3 - 0.0 - - - - - - -
03/09:00am 29.8 WSW 6 10 1008.4 - 0.0 - - - - - - -
03/08:30am 28.6 WSW 8 11 1008.2 - 0.0 - - - - - - -
03/08:00am 28.2 WSW 5 9 1008.3 - 0.0 - - - - - - -
03/07:30am 27.2 SSW 6 8 1008.0 - 0.0 - - - - - - -
03/07:00am 26.1 SW 5 7 1007.7 - 0.0 - - - - - - -
03/06:30am 25.5 WSW 3 5 1007.6 - 0.0 - - - - - - -
03/06:00am 25.5 WSW 3 4 1007.4 - 0.0 - - - - - - -
03/05:30am 25.5 W 4 5 1006.8 - 0.0 - - - - - - -
03/05:00am 25.6 W 4 5 1006.7 - 0.0 - - - - - - -
03/04:30am 26.0 W 4 6 1006.4 - 0.0 - - - - - - -
03/04:00am 26.4 WSW 6 8 1006.4 - 0.0 - - - - - - -
03/03:30am 26.6 SW 6 8 1006.5 - 0.0 - - - - - - -
03/03:00am 26.9 SW 6 8 1006.5 - 0.0 - - - - - - -
03/02:30am 27.2 SW 6 7 1006.4 - 0.0 - - - - - - -
03/02:00am 27.3 WSW 5 8 1006.7 - 0.0 - - - - - - -
03/01:30am 27.4 WSW 6 8 1006.7 - 0.0 - - - - - - -
03/01:00am 27.4 WSW 4 6 1006.9 - 0.0 - - - - - - -
03/12:30am 27.5 WSW 4 6 1007.1 - 0.0 - - - - - - -

Other Formats:

Comma delimited format used in spreadsheet applications
http://www.bom.gov.au/fwo/IDW60701/IDW60701.94306.axf

JavaScript Object Notation format (JSON) in row-major order
http://www.bom.gov.au/fwo/IDW60701/IDW60701.94306.json